East Brookfield, Massachusetts
Current Conditions -  °F | °C
As of 7:54 AM on Saturday 25 Oct 2014 (Local Time) from KORH Reporting Station
Clear Clear  
Wind Chill: 37°   Ceiling: Unl
Heat Index: 43°   Visibility: 10mi
Dew Point: 38°   Wind: 12mph
Humidity: 82%   Direction: 260°W
Pressure: 29.77"   Gusts: NA
Location:  42.23°N, 72.05°W
Report Text: KORH 251154Z 26010KT 10SM CLR 06/03 A2977 RMK AO2 SLP087 70002 T00610033 10078 20056 53005 $
Loading
Personal Weather Stations






























Interactive Weather Map
Tropical Storm Tracking
New forecast layout! Learn more

10-Day Weather Forecast

Advertisements
Track Severe Weather on mobile